sensor_id;sensor_type;location;lat;lon;timestamp;temperature;humidity
16578;DHT22;8401;52.528;13.340;2022-08-01T00:01:46;22.10;99.90
16578;DHT22;8401;52.528;13.340;2022-08-01T00:04:12;22.20;99.90
16578;DHT22;8401;52.528;13.340;2022-08-01T00:06:37;22.10;99.90
16578;DHT22;8401;52.528;13.340;2022-08-01T00:09:03;22.00;99.90
16578;DHT22;8401;52.528;13.340;2022-08-01T00:11:29;22.00;99.90
16578;DHT22;8401;52.528;13.340;2022-08-01T00:13:54;21.80;99.90
16578;DHT22;8401;52.528;13.340;2022-08-01T00:16:20;21.80;99.90
16578;DHT22;8401;52.528;13.340;2022-08-01T00:18:49;21.80;99.90
16578;DHT22;8401;52.528;13.340;2022-08-01T00:21:15;21.80;99.90
16578;DHT22;8401;52.528;13.340;2022-08-01T00:23:41;21.80;99.90
16578;DHT22;8401;52.528;13.340;2022-08-01T00:26:06;21.70;99.90
16578;DHT22;8401;52.528;13.340;2022-08-01T00:28:32;21.70;99.90
16578;DHT22;8401;52.528;13.340;2022-08-01T00:30:58;21.80;99.90
16578;DHT22;8401;52.528;13.340;2022-08-01T00:33:23;21.70;99.90
16578;DHT22;8401;52.528;13.340;2022-08-01T00:35:49;21.50;99.90
16578;DHT22;8401;52.528;13.340;2022-08-01T00:38:15;21.50;99.90
16578;DHT22;8401;52.528;13.340;2022-08-01T00:40:40;21.60;99.90
16578;DHT22;8401;52.528;13.340;2022-08-01T00:43:06;21.50;99.90
16578;DHT22;8401;52.528;13.340;2022-08-01T00:45:31;21.40;99.90
16578;DHT22;8401;52.528;13.340;2022-08-01T00:47:57;21.50;99.90
16578;DHT22;8401;52.528;13.340;2022-08-01T00:50:23;21.50;99.90
16578;DHT22;8401;52.528;13.340;2022-08-01T00:52:49;21.40;99.90
16578;DHT22;8401;52.528;13.340;2022-08-01T00:55:15;21.30;99.90
16578;DHT22;8401;52.528;13.340;2022-08-01T00:57:42;21.20;99.90
16578;DHT22;8401;52.528;13.340;2022-08-01T01:00:08;21.00;99.90
16578;DHT22;8401;52.528;13.340;2022-08-01T01:02:34;20.90;99.90
16578;DHT22;8401;52.528;13.340;2022-08-01T01:05:01;20.90;99.90
16578;DHT22;8401;52.528;13.340;2022-08-01T01:07:49;21.00;99.90
16578;DHT22;8401;52.528;13.340;2022-08-01T01:13:05;20.90;99.90
16578;DHT22;8401;52.528;13.340;2022-08-01T01:15:44;20.90;99.90
16578;DHT22;8401;52.528;13.340;2022-08-01T01:18:27;20.90;99.90
16578;DHT22;8401;52.528;13.340;2022-08-01T01:27:06;21.00;99.90
16578;DHT22;8401;52.528;13.340;2022-08-01T01:29:41;21.00;99.90
16578;DHT22;8401;52.528;13.340;2022-08-01T01:32:18;21.10;99.90
16578;DHT22;8401;52.528;13.340;2022-08-01T01:34:46;21.10;99.90
16578;DHT22;8401;52.528;13.340;2022-08-01T01:37:18;21.10;99.90
16578;DHT22;8401;52.528;13.340;2022-08-01T01:39:44;21.10;99.90
16578;DHT22;8401;52.528;13.340;2022-08-01T01:42:11;21.10;99.90
16578;DHT22;8401;52.528;13.340;2022-08-01T01:44:38;21.10;99.90
16578;DHT22;8401;52.528;13.340;2022-08-01T01:47:05;21.10;99.90
16578;DHT22;8401;52.528;13.340;2022-08-01T01:49:32;21.10;99.90
16578;DHT22;8401;52.528;13.340;2022-08-01T01:51:58;21.10;99.90
16578;DHT22;8401;52.528;13.340;2022-08-01T01:54:33;21.10;99.90
16578;DHT22;8401;52.528;13.340;2022-08-01T01:57:02;20.90;99.90
16578;DHT22;8401;52.528;13.340;2022-08-01T01:59:31;20.90;99.90
16578;DHT22;8401;52.528;13.340;2022-08-01T02:02:01;20.90;99.90
16578;DHT22;8401;52.528;13.340;2022-08-01T02:04:28;20.80;99.90
16578;DHT22;8401;52.528;13.340;2022-08-01T02:06:55;20.90;99.90
16578;DHT22;8401;52.528;13.340;2022-08-01T02:09:23;20.70;99.90
16578;DHT22;8401;52.528;13.340;2022-08-01T02:11:50;20.80;99.90
16578;DHT22;8401;52.528;13.340;2022-08-01T02:14:18;20.70;99.90
16578;DHT22;8401;52.528;13.340;2022-08-01T02:16:47;20.60;99.90
16578;DHT22;8401;52.528;13.340;2022-08-01T02:19:15;20.60;99.90
16578;DHT22;8401;52.528;13.340;2022-08-01T02:21:54;20.60;99.90
16578;DHT22;8401;52.528;13.340;2022-08-01T02:27:09;20.60;99.90
16578;DHT22;8401;52.528;13.340;2022-08-01T02:29:42;20.50;99.90
16578;DHT22;8401;52.528;13.340;2022-08-01T02:32:19;20.40;99.90
16578;DHT22;8401;52.528;13.340;2022-08-01T02:34:47;20.50;99.90
16578;DHT22;8401;52.528;13.340;2022-08-01T02:37:15;20.50;99.90
16578;DHT22;8401;52.528;13.340;2022-08-01T02:39:42;20.50;99.90
16578;DHT22;8401;52.528;13.340;2022-08-01T02:42:10;20.50;99.90
16578;DHT22;8401;52.528;13.340;2022-08-01T02:44:39;20.40;99.90
16578;DHT22;8401;52.528;13.340;2022-08-01T02:47:07;20.30;99.90
16578;DHT22;8401;52.528;13.340;2022-08-01T02:49:36;20.50;99.90
16578;DHT22;8401;52.528;13.340;2022-08-01T02:52:06;20.70;99.90
16578;DHT22;8401;52.528;13.340;2022-08-01T02:54:33;20.70;99.90
16578;DHT22;8401;52.528;13.340;2022-08-01T02:57:00;20.70;99.90
16578;DHT22;8401;52.528;13.340;2022-08-01T02:59:29;20.60;99.90
16578;DHT22;8401;52.528;13.340;2022-08-01T03:01:57;20.60;99.90
16578;DHT22;8401;52.528;13.340;2022-08-01T03:04:25;20.60;99.90
16578;DHT22;8401;52.528;13.340;2022-08-01T03:06:53;20.50;99.90
16578;DHT22;8401;52.528;13.340;2022-08-01T03:09:19;20.50;99.90
16578;DHT22;8401;52.528;13.340;2022-08-01T03:11:46;20.60;99.90
16578;DHT22;8401;52.528;13.340;2022-08-01T03:14:14;20.60;99.90
16578;DHT22;8401;52.528;13.340;2022-08-01T03:16:42;20.50;99.90
16578;DHT22;8401;52.528;13.340;2022-08-01T03:19:11;20.50;99.90
16578;DHT22;8401;52.528;13.340;2022-08-01T03:21:37;20.50;99.90
16578;DHT22;8401;52.528;13.340;2022-08-01T03:24:05;20.50;99.90
16578;DHT22;8401;52.528;13.340;2022-08-01T03:26:34;20.30;99.90
16578;DHT22;8401;52.528;13.340;2022-08-01T03:29:18;20.30;99.90
16578;DHT22;8401;52.528;13.340;2022-08-01T03:31:46;20.40;99.90
16578;DHT22;8401;52.528;13.340;2022-08-01T03:34:13;20.40;99.90
16578;DHT22;8401;52.528;13.340;2022-08-01T03:36:47;20.30;99.90
16578;DHT22;8401;52.528;13.340;2022-08-01T03:39:14;20.20;99.90
16578;DHT22;8401;52.528;13.340;2022-08-01T03:41:45;20.40;99.90
16578;DHT22;8401;52.528;13.340;2022-08-01T03:44:15;20.40;99.90
16578;DHT22;8401;52.528;13.340;2022-08-01T03:46:49;20.30;99.90
16578;DHT22;8401;52.528;13.340;2022-08-01T03:49:20;20.40;99.90
16578;DHT22;8401;52.528;13.340;2022-08-01T03:51:48;20.40;99.90
16578;DHT22;8401;52.528;13.340;2022-08-01T03:54:16;20.30;99.90
16578;DHT22;8401;52.528;13.340;2022-08-01T03:56:46;20.30;99.90
16578;DHT22;8401;52.528;13.340;2022-08-01T03:59:15;20.40;99.90
16578;DHT22;8401;52.528;13.340;2022-08-01T04:01:42;20.40;99.90
16578;DHT22;8401;52.528;13.340;2022-08-01T04:04:08;20.40;99.90
16578;DHT22;8401;52.528;13.340;2022-08-01T04:06:37;20.40;99.90
16578;DHT22;8401;52.528;13.340;2022-08-01T04:09:03;20.30;99.90
16578;DHT22;8401;52.528;13.340;2022-08-01T04:11:29;20.40;99.90
16578;DHT22;8401;52.528;13.340;2022-08-01T04:13:55;20.30;99.90
16578;DHT22;8401;52.528;13.340;2022-08-01T04:16:22;20.30;99.90
16578;DHT22;8401;52.528;13.340;2022-08-01T04:18:49;20.40;99.90
16578;DHT22;8401;52.528;13.340;2022-08-01T04:21:18;20.40;99.90
16578;DHT22;8401;52.528;13.340;2022-08-01T04:23:47;20.20;99.90
16578;DHT22;8401;52.528;13.340;2022-08-01T04:26:14;20.10;99.90
16578;DHT22;8401;52.528;13.340;2022-08-01T04:28:42;20.20;99.90
16578;DHT22;8401;52.528;13.340;2022-08-01T04:31:10;20.30;99.90
16578;DHT22;8401;52.528;13.340;2022-08-01T04:33:42;20.40;99.90
16578;DHT22;8401;52.528;13.340;2022-08-01T04:36:10;20.30;99.90
16578;DHT22;8401;52.528;13.340;2022-08-01T04:38:38;20.30;99.90
16578;DHT22;8401;52.528;13.340;2022-08-01T04:41:06;20.30;99.90
16578;DHT22;8401;52.528;13.340;2022-08-01T04:43:32;20.40;99.90
16578;DHT22;8401;52.528;13.340;2022-08-01T04:45:58;20.50;99.90
16578;DHT22;8401;52.528;13.340;2022-08-01T04:48:24;20.30;99.90
16578;DHT22;8401;52.528;13.340;2022-08-01T04:50:51;20.30;99.90
16578;DHT22;8401;52.528;13.340;2022-08-01T04:53:18;20.40;99.90
16578;DHT22;8401;52.528;13.340;2022-08-01T04:55:47;20.30;99.90
16578;DHT22;8401;52.528;13.340;2022-08-01T04:58:15;20.30;99.90
16578;DHT22;8401;52.528;13.340;2022-08-01T05:00:41;20.40;99.90
16578;DHT22;8401;52.528;13.340;2022-08-01T05:03:06;20.40;99.90
16578;DHT22;8401;52.528;13.340;2022-08-01T05:05:32;20.30;99.90
16578;DHT22;8401;52.528;13.340;2022-08-01T05:07:57;20.30;99.90
16578;DHT22;8401;52.528;13.340;2022-08-01T05:10:23;20.20;99.90
16578;DHT22;8401;52.528;13.340;2022-08-01T05:12:49;20.00;99.90
16578;DHT22;8401;52.528;13.340;2022-08-01T05:15:14;20.00;99.90
16578;DHT22;8401;52.528;13.340;2022-08-01T05:17:40;20.10;99.90
16578;DHT22;8401;52.528;13.340;2022-08-01T05:20:07;20.20;99.90
16578;DHT22;8401;52.528;13.340;2022-08-01T05:22:33;20.20;99.90
16578;DHT22;8401;52.528;13.340;2022-08-01T05:24:59;20.20;99.90
16578;DHT22;8401;52.528;13.340;2022-08-01T05:27:25;20.30;99.90
16578;DHT22;8401;52.528;13.340;2022-08-01T05:29:51;20.20;99.90
16578;DHT22;8401;52.528;13.340;2022-08-01T05:32:17;20.20;99.90
16578;DHT22;8401;52.528;13.340;2022-08-01T05:34:42;20.30;99.90
16578;DHT22;8401;52.528;13.340;2022-08-01T05:37:08;20.40;99.90
16578;DHT22;8401;52.528;13.340;2022-08-01T05:39:34;20.40;99.90
16578;DHT22;8401;52.528;13.340;2022-08-01T05:42:01;20.40;99.90
16578;DHT22;8401;52.528;13.340;2022-08-01T05:44:27;20.40;99.90
16578;DHT22;8401;52.528;13.340;2022-08-01T05:46:53;20.30;99.90
16578;DHT22;8401;52.528;13.340;2022-08-01T05:49:18;20.40;99.90
16578;DHT22;8401;52.528;13.340;2022-08-01T05:51:44;20.30;99.90
16578;DHT22;8401;52.528;13.340;2022-08-01T05:54:10;20.50;99.90
16578;DHT22;8401;52.528;13.340;2022-08-01T05:56:35;20.60;99.90
16578;DHT22;8401;52.528;13.340;2022-08-01T05:59:01;20.70;99.90
16578;DHT22;8401;52.528;13.340;2022-08-01T06:01:26;20.70;99.90
16578;DHT22;8401;52.528;13.340;2022-08-01T06:03:52;20.50;99.90
16578;DHT22;8401;52.528;13.340;2022-08-01T06:06:20;20.40;99.90
16578;DHT22;8401;52.528;13.340;2022-08-01T06:08:46;20.60;99.90
16578;DHT22;8401;52.528;13.340;2022-08-01T06:11:15;20.60;99.90
16578;DHT22;8401;52.528;13.340;2022-08-01T06:13:40;20.50;99.90
16578;DHT22;8401;52.528;13.340;2022-08-01T06:16:06;20.60;99.90
16578;DHT22;8401;52.528;13.340;2022-08-01T06:18:31;20.70;99.90
16578;DHT22;8401;52.528;13.340;2022-08-01T06:20:57;20.70;99.90
16578;DHT22;8401;52.528;13.340;2022-08-01T06:23:23;20.60;99.90
16578;DHT22;8401;52.528;13.340;2022-08-01T06:25:52;20.70;99.90
16578;DHT22;8401;52.528;13.340;2022-08-01T06:28:18;20.50;99.90
16578;DHT22;8401;52.528;13.340;2022-08-01T06:30:44;20.50;99.90
16578;DHT22;8401;52.528;13.340;2022-08-01T06:33:09;20.60;99.90
16578;DHT22;8401;52.528;13.340;2022-08-01T06:35:35;20.60;99.90
16578;DHT22;8401;52.528;13.340;2022-08-01T06:38:02;20.80;99.90
16578;DHT22;8401;52.528;13.340;2022-08-01T06:40:28;20.90;99.90
16578;DHT22;8401;52.528;13.340;2022-08-01T06:42:54;21.10;99.90
16578;DHT22;8401;52.528;13.340;2022-08-01T06:45:20;21.20;99.90
16578;DHT22;8401;52.528;13.340;2022-08-01T06:47:48;21.00;99.90
16578;DHT22;8401;52.528;13.340;2022-08-01T06:50:14;21.00;99.90
16578;DHT22;8401;52.528;13.340;2022-08-01T06:52:40;20.90;99.90
16578;DHT22;8401;52.528;13.340;2022-08-01T06:55:06;21.10;99.90
16578;DHT22;8401;52.528;13.340;2022-08-01T06:57:32;21.20;99.90
16578;DHT22;8401;52.528;13.340;2022-08-01T07:00:00;21.40;99.90
16578;DHT22;8401;52.528;13.340;2022-08-01T07:02:26;21.40;99.90
16578;DHT22;8401;52.528;13.340;2022-08-01T07:04:51;21.30;99.90
16578;DHT22;8401;52.528;13.340;2022-08-01T07:07:17;21.40;99.90
16578;DHT22;8401;52.528;13.340;2022-08-01T07:09:43;21.20;99.90
16578;DHT22;8401;52.528;13.340;2022-08-01T07:12:08;21.10;99.90
16578;DHT22;8401;52.528;13.340;2022-08-01T07:14:34;21.30;99.90
16578;DHT22;8401;52.528;13.340;2022-08-01T07:17:00;21.40;99.90
16578;DHT22;8401;52.528;13.340;2022-08-01T07:19:26;21.60;99.90
16578;DHT22;8401;52.528;13.340;2022-08-01T07:21:52;21.40;99.90
16578;DHT22;8401;52.528;13.340;2022-08-01T07:24:17;21.20;99.90
16578;DHT22;8401;52.528;13.340;2022-08-01T07:26:45;21.10;99.90
16578;DHT22;8401;52.528;13.340;2022-08-01T07:29:11;20.90;99.90
16578;DHT22;8401;52.528;13.340;2022-08-01T07:31:37;20.90;99.90
16578;DHT22;8401;52.528;13.340;2022-08-01T07:34:03;21.10;99.90
16578;DHT22;8401;52.528;13.340;2022-08-01T07:36:28;21.20;99.90
16578;DHT22;8401;52.528;13.340;2022-08-01T07:38:54;21.20;99.90
16578;DHT22;8401;52.528;13.340;2022-08-01T07:41:20;21.30;99.90
16578;DHT22;8401;52.528;13.340;2022-08-01T07:43:46;21.50;99.90
16578;DHT22;8401;52.528;13.340;2022-08-01T07:46:14;21.80;99.90
16578;DHT22;8401;52.528;13.340;2022-08-01T07:48:40;22.10;99.90
16578;DHT22;8401;52.528;13.340;2022-08-01T07:51:05;22.30;99.90
16578;DHT22;8401;52.528;13.340;2022-08-01T07:53:31;21.70;99.90
16578;DHT22;8401;52.528;13.340;2022-08-01T07:55:56;21.60;99.90
16578;DHT22;8401;52.528;13.340;2022-08-01T07:58:22;21.70;99.90
16578;DHT22;8401;52.528;13.340;2022-08-01T08:00:47;21.50;99.90
16578;DHT22;8401;52.528;13.340;2022-08-01T08:03:13;21.20;99.90
16578;DHT22;8401;52.528;13.340;2022-08-01T08:05:39;21.00;99.90
16578;DHT22;8401;52.528;13.340;2022-08-01T08:08:06;21.10;99.90
16578;DHT22;8401;52.528;13.340;2022-08-01T08:10:32;20.90;99.90
16578;DHT22;8401;52.528;13.340;2022-08-01T08:12:58;20.90;99.90
16578;DHT22;8401;52.528;13.340;2022-08-01T08:15:24;20.80;99.90
16578;DHT22;8401;52.528;13.340;2022-08-01T08:17:49;20.90;99.90
16578;DHT22;8401;52.528;13.340;2022-08-01T08:20:15;21.10;99.90
16578;DHT22;8401;52.528;13.340;2022-08-01T08:22:41;21.10;99.90
16578;DHT22;8401;52.528;13.340;2022-08-01T08:25:07;21.30;99.90
16578;DHT22;8401;52.528;13.340;2022-08-01T08:27:34;21.30;99.90
16578;DHT22;8401;52.528;13.340;2022-08-01T08:29:59;21.30;99.90
16578;DHT22;8401;52.528;13.340;2022-08-01T08:32:25;21.30;99.90
16578;DHT22;8401;52.528;13.340;2022-08-01T08:34:51;21.40;99.90
16578;DHT22;8401;52.528;13.340;2022-08-01T08:37:16;21.40;99.90
16578;DHT22;8401;52.528;13.340;2022-08-01T08:39:42;21.40;99.90
16578;DHT22;8401;52.528;13.340;2022-08-01T08:42:10;21.50;99.90
16578;DHT22;8401;52.528;13.340;2022-08-01T08:44:36;21.40;99.90
16578;DHT22;8401;52.528;13.340;2022-08-01T08:47:02;21.40;99.90
16578;DHT22;8401;52.528;13.340;2022-08-01T08:49:31;21.50;99.90
16578;DHT22;8401;52.528;13.340;2022-08-01T08:52:01;21.60;99.90
16578;DHT22;8401;52.528;13.340;2022-08-01T08:54:29;21.60;99.90
16578;DHT22;8401;52.528;13.340;2022-08-01T08:56:56;21.70;99.90
16578;DHT22;8401;52.528;13.340;2022-08-01T08:59:22;22.00;99.90
16578;DHT22;8401;52.528;13.340;2022-08-01T09:01:49;22.50;99.90
16578;DHT22;8401;52.528;13.340;2022-08-01T09:04:15;23.00;99.90
16578;DHT22;8401;52.528;13.340;2022-08-01T09:06:41;23.40;99.90
16578;DHT22;8401;52.528;13.340;2022-08-01T09:09:09;23.30;99.90
16578;DHT22;8401;52.528;13.340;2022-08-01T09:11:36;23.10;99.90
16578;DHT22;8401;52.528;13.340;2022-08-01T09:14:13;22.70;99.90
16578;DHT22;8401;52.528;13.340;2022-08-01T09:16:44;22.60;99.90
16578;DHT22;8401;52.528;13.340;2022-08-01T09:19:18;22.60;99.90
16578;DHT22;8401;52.528;13.340;2022-08-01T09:22:02;22.40;99.90
16578;DHT22;8401;52.528;13.340;2022-08-01T09:24:30;22.40;99.90
16578;DHT22;8401;52.528;13.340;2022-08-01T09:26:57;22.50;99.90
16578;DHT22;8401;52.528;13.340;2022-08-01T09:29:26;22.30;99.90
16578;DHT22;8401;52.528;13.340;2022-08-01T09:31:52;22.50;99.90
16578;DHT22;8401;52.528;13.340;2022-08-01T09:34:27;22.50;99.90
16578;DHT22;8401;52.528;13.340;2022-08-01T09:36:55;22.20;99.90
16578;DHT22;8401;52.528;13.340;2022-08-01T09:39:26;22.20;99.90
16578;DHT22;8401;52.528;13.340;2022-08-01T09:41:53;22.20;99.90
16578;DHT22;8401;52.528;13.340;2022-08-01T09:44:18;22.10;99.90
16578;DHT22;8401;52.528;13.340;2022-08-01T09:46:50;22.00;99.90
16578;DHT22;8401;52.528;13.340;2022-08-01T09:49:27;21.90;99.90
16578;DHT22;8401;52.528;13.340;2022-08-01T09:51:53;21.80;99.90
16578;DHT22;8401;52.528;13.340;2022-08-01T09:54:29;21.70;99.90
16578;DHT22;8401;52.528;13.340;2022-08-01T09:57:11;21.80;99.90
16578;DHT22;8401;52.528;13.340;2022-08-01T09:59:39;21.90;99.90
16578;DHT22;8401;52.528;13.340;2022-08-01T10:02:11;21.90;99.90
16578;DHT22;8401;52.528;13.340;2022-08-01T10:04:46;21.90;99.90
16578;DHT22;8401;52.528;13.340;2022-08-01T10:07:12;21.80;99.90
16578;DHT22;8401;52.528;13.340;2022-08-01T10:09:41;21.90;99.90
16578;DHT22;8401;52.528;13.340;2022-08-01T10:12:09;22.00;99.90
16578;DHT22;8401;52.528;13.340;2022-08-01T10:14:37;22.10;99.90
16578;DHT22;8401;52.528;13.340;2022-08-01T10:17:04;22.20;99.90
16578;DHT22;8401;52.528;13.340;2022-08-01T10:19:30;22.30;99.90
16578;DHT22;8401;52.528;13.340;2022-08-01T10:21:57;22.30;99.90
16578;DHT22;8401;52.528;13.340;2022-08-01T10:24:25;22.40;99.90
16578;DHT22;8401;52.528;13.340;2022-08-01T10:26:56;22.60;99.90
16578;DHT22;8401;52.528;13.340;2022-08-01T10:29:26;22.90;99.90
16578;DHT22;8401;52.528;13.340;2022-08-01T10:31:52;22.90;99.90
16578;DHT22;8401;52.528;13.340;2022-08-01T10:34:18;22.80;99.90
16578;DHT22;8401;52.528;13.340;2022-08-01T10:36:46;22.90;99.90
16578;DHT22;8401;52.528;13.340;2022-08-01T10:39:12;23.10;99.90
16578;DHT22;8401;52.528;13.340;2022-08-01T10:41:39;22.80;99.90
16578;DHT22;8401;52.528;13.340;2022-08-01T10:44:07;22.70;99.90
16578;DHT22;8401;52.528;13.340;2022-08-01T10:46:37;22.80;99.90
16578;DHT22;8401;52.528;13.340;2022-08-01T10:49:07;22.50;99.90
16578;DHT22;8401;52.528;13.340;2022-08-01T10:51:37;22.50;99.90
16578;DHT22;8401;52.528;13.340;2022-08-01T10:54:06;22.30;99.90
16578;DHT22;8401;52.528;13.340;2022-08-01T10:56:47;22.40;99.90
16578;DHT22;8401;52.528;13.340;2022-08-01T10:59:24;22.40;99.90
16578;DHT22;8401;52.528;13.340;2022-08-01T11:01:58;22.70;99.90
16578;DHT22;8401;52.528;13.340;2022-08-01T11:05:09;22.80;99.90
16578;DHT22;8401;52.528;13.340;2022-08-01T11:07:48;23.10;99.90
16578;DHT22;8401;52.528;13.340;2022-08-01T11:12:49;23.30;99.90
16578;DHT22;8401;52.528;13.340;2022-08-01T11:17:46;23.20;99.90
16578;DHT22;8401;52.528;13.340;2022-08-01T11:20:54;23.00;99.90
16578;DHT22;8401;52.528;13.340;2022-08-01T11:23:16;22.90;99.90
16578;DHT22;8401;52.528;13.340;2022-08-01T11:30:54;22.20;99.90
16578;DHT22;8401;52.528;13.340;2022-08-01T11:38:40;21.80;99.90
16578;DHT22;8401;52.528;13.340;2022-08-01T11:46:46;21.90;99.90
16578;DHT22;8401;52.528;13.340;2022-08-01T11:49:45;22.00;99.90
16578;DHT22;8401;52.528;13.340;2022-08-01T11:52:18;22.10;99.90
16578;DHT22;8401;52.528;13.340;2022-08-01T11:54:48;22.10;99.90
16578;DHT22;8401;52.528;13.340;2022-08-01T11:57:14;22.30;99.90
16578;DHT22;8401;52.528;13.340;2022-08-01T11:59:45;22.40;99.90
16578;DHT22;8401;52.528;13.340;2022-08-01T12:02:21;22.70;99.90
16578;DHT22;8401;52.528;13.340;2022-08-01T12:04:47;23.10;99.90
16578;DHT22;8401;52.528;13.340;2022-08-01T12:07:17;23.70;99.90
16578;DHT22;8401;52.528;13.340;2022-08-01T12:09:43;23.50;99.90
16578;DHT22;8401;52.528;13.340;2022-08-01T12:12:09;23.60;99.90
16578;DHT22;8401;52.528;13.340;2022-08-01T12:14:35;23.50;99.90
16578;DHT22;8401;52.528;13.340;2022-08-01T12:17:01;23.60;99.90
16578;DHT22;8401;52.528;13.340;2022-08-01T12:19:27;23.60;99.90
16578;DHT22;8401;52.528;13.340;2022-08-01T12:22:13;24.00;99.90
16578;DHT22;8401;52.528;13.340;2022-08-01T12:24:41;24.10;99.90
16578;DHT22;8401;52.528;13.340;2022-08-01T12:27:09;24.10;99.90
16578;DHT22;8401;52.528;13.340;2022-08-01T12:29:41;24.60;99.90
16578;DHT22;8401;52.528;13.340;2022-08-01T12:32:23;24.40;99.90
16578;DHT22;8401;52.528;13.340;2022-08-01T12:34:50;24.80;99.90
16578;DHT22;8401;52.528;13.340;2022-08-01T12:37:16;24.30;99.90
16578;DHT22;8401;52.528;13.340;2022-08-01T12:39:42;24.40;99.90
16578;DHT22;8401;52.528;13.340;2022-08-01T12:42:08;24.60;99.90
16578;DHT22;8401;52.528;13.340;2022-08-01T12:44:36;24.80;99.90
16578;DHT22;8401;52.528;13.340;2022-08-01T12:47:04;25.30;99.90
16578;DHT22;8401;52.528;13.340;2022-08-01T12:49:32;25.20;99.90
16578;DHT22;8401;52.528;13.340;2022-08-01T12:51:58;24.90;99.90
16578;DHT22;8401;52.528;13.340;2022-08-01T12:54:23;25.10;99.90
16578;DHT22;8401;52.528;13.340;2022-08-01T12:56:51;25.20;99.90
16578;DHT22;8401;52.528;13.340;2022-08-01T12:59:25;25.20;99.90
16578;DHT22;8401;52.528;13.340;2022-08-01T13:01:52;25.40;99.90
16578;DHT22;8401;52.528;13.340;2022-08-01T13:04:19;24.80;99.90
16578;DHT22;8401;52.528;13.340;2022-08-01T13:06:44;24.80;99.90
16578;DHT22;8401;52.528;13.340;2022-08-01T13:09:11;24.70;99.90
16578;DHT22;8401;52.528;13.340;2022-08-01T13:11:40;24.90;99.90
16578;DHT22;8401;52.528;13.340;2022-08-01T13:14:06;24.80;99.90
16578;DHT22;8401;52.528;13.340;2022-08-01T13:16:32;24.50;99.90
16578;DHT22;8401;52.528;13.340;2022-08-01T13:19:10;24.40;99.90
16578;DHT22;8401;52.528;13.340;2022-08-01T13:21:35;24.40;99.90
16578;DHT22;8401;52.528;13.340;2022-08-01T13:24:10;24.30;99.90
16578;DHT22;8401;52.528;13.340;2022-08-01T13:26:58;24.40;99.90
16578;DHT22;8401;52.528;13.340;2022-08-01T13:29:38;24.60;99.90
16578;DHT22;8401;52.528;13.340;2022-08-01T13:32:20;24.20;99.90
16578;DHT22;8401;52.528;13.340;2022-08-01T13:34:46;24.20;99.90
16578;DHT22;8401;52.528;13.340;2022-08-01T13:37:12;24.60;99.90
16578;DHT22;8401;52.528;13.340;2022-08-01T13:39:37;24.80;99.90
16578;DHT22;8401;52.528;13.340;2022-08-01T13:42:07;24.40;99.90
16578;DHT22;8401;52.528;13.340;2022-08-01T13:44:33;24.40;99.90
16578;DHT22;8401;52.528;13.340;2022-08-01T13:46:58;23.80;99.90
16578;DHT22;8401;52.528;13.340;2022-08-01T13:49:24;23.80;99.90
16578;DHT22;8401;52.528;13.340;2022-08-01T13:51:50;23.60;99.90
16578;DHT22;8401;52.528;13.340;2022-08-01T13:54:16;23.70;99.90
16578;DHT22;8401;52.528;13.340;2022-08-01T13:56:42;23.90;99.90
16578;DHT22;8401;52.528;13.340;2022-08-01T13:59:07;24.10;99.90
16578;DHT22;8401;52.528;13.340;2022-08-01T14:01:33;24.20;99.90
16578;DHT22;8401;52.528;13.340;2022-08-01T14:03:59;24.30;99.90
16578;DHT22;8401;52.528;13.340;2022-08-01T14:06:25;24.30;99.90
16578;DHT22;8401;52.528;13.340;2022-08-01T14:08:51;24.40;99.90
16578;DHT22;8401;52.528;13.340;2022-08-01T14:11:17;24.50;99.90
16578;DHT22;8401;52.528;13.340;2022-08-01T14:13:43;24.80;99.90
16578;DHT22;8401;52.528;13.340;2022-08-01T14:16:09;25.00;99.90
16578;DHT22;8401;52.528;13.340;2022-08-01T14:18:34;25.30;99.90
16578;DHT22;8401;52.528;13.340;2022-08-01T14:21:00;25.30;99.90
16578;DHT22;8401;52.528;13.340;2022-08-01T14:23:26;25.40;99.90
16578;DHT22;8401;52.528;13.340;2022-08-01T14:25:52;25.50;99.90
16578;DHT22;8401;52.528;13.340;2022-08-01T14:28:17;25.10;99.90
16578;DHT22;8401;52.528;13.340;2022-08-01T14:30:43;25.00;99.90
16578;DHT22;8401;52.528;13.340;2022-08-01T14:33:13;24.60;99.90
16578;DHT22;8401;52.528;13.340;2022-08-01T14:35:39;24.70;99.90
16578;DHT22;8401;52.528;13.340;2022-08-01T14:38:04;25.00;99.90
16578;DHT22;8401;52.528;13.340;2022-08-01T14:40:30;25.00;99.90
16578;DHT22;8401;52.528;13.340;2022-08-01T14:42:56;24.80;99.90
16578;DHT22;8401;52.528;13.340;2022-08-01T14:45:22;24.80;99.90
16578;DHT22;8401;52.528;13.340;2022-08-01T14:47:47;24.70;99.90
16578;DHT22;8401;52.528;13.340;2022-08-01T14:50:14;24.80;99.90
16578;DHT22;8401;52.528;13.340;2022-08-01T14:52:41;24.60;99.90
16578;DHT22;8401;52.528;13.340;2022-08-01T14:55:09;24.60;99.90
16578;DHT22;8401;52.528;13.340;2022-08-01T14:57:35;24.60;99.90
16578;DHT22;8401;52.528;13.340;2022-08-01T15:00:04;24.70;99.90
16578;DHT22;8401;52.528;13.340;2022-08-01T15:02:30;24.80;99.90
16578;DHT22;8401;52.528;13.340;2022-08-01T15:04:56;24.90;99.90
16578;DHT22;8401;52.528;13.340;2022-08-01T15:07:21;24.80;99.90
16578;DHT22;8401;52.528;13.340;2022-08-01T15:09:47;24.80;99.90
16578;DHT22;8401;52.528;13.340;2022-08-01T15:12:12;24.80;99.90
16578;DHT22;8401;52.528;13.340;2022-08-01T15:14:38;24.80;99.90
16578;DHT22;8401;52.528;13.340;2022-08-01T15:17:19;24.70;99.90
16578;DHT22;8401;52.528;13.340;2022-08-01T15:19:49;24.60;99.90
16578;DHT22;8401;52.528;13.340;2022-08-01T15:22:15;24.50;99.90
16578;DHT22;8401;52.528;13.340;2022-08-01T15:24:41;24.60;99.90
16578;DHT22;8401;52.528;13.340;2022-08-01T15:27:08;24.50;99.90
16578;DHT22;8401;52.528;13.340;2022-08-01T15:29:34;24.50;99.90
16578;DHT22;8401;52.528;13.340;2022-08-01T15:32:01;24.60;99.90
16578;DHT22;8401;52.528;13.340;2022-08-01T15:34:27;24.70;99.90
16578;DHT22;8401;52.528;13.340;2022-08-01T15:36:53;24.90;99.90
16578;DHT22;8401;52.528;13.340;2022-08-01T15:39:18;24.90;99.90
16578;DHT22;8401;52.528;13.340;2022-08-01T15:41:44;25.10;99.90
16578;DHT22;8401;52.528;13.340;2022-08-01T15:44:10;25.30;99.90
16578;DHT22;8401;52.528;13.340;2022-08-01T15:46:35;25.10;99.90
16578;DHT22;8401;52.528;13.340;2022-08-01T15:49:05;25.00;99.90
16578;DHT22;8401;52.528;13.340;2022-08-01T15:51:32;24.90;99.90
16578;DHT22;8401;52.528;13.340;2022-08-01T15:53:58;25.20;99.90
16578;DHT22;8401;52.528;13.340;2022-08-01T15:56:30;25.10;99.90
16578;DHT22;8401;52.528;13.340;2022-08-01T15:58:56;25.00;99.90
16578;DHT22;8401;52.528;13.340;2022-08-01T16:01:22;25.10;99.90
16578;DHT22;8401;52.528;13.340;2022-08-01T16:03:48;25.20;99.90
16578;DHT22;8401;52.528;13.340;2022-08-01T16:06:14;25.20;99.90
16578;DHT22;8401;52.528;13.340;2022-08-01T16:08:39;25.10;99.90